createdAt,value
2023-03-27T00:02:52.820Z,11.73
2023-03-27T00:06:08.030Z,11.74
2023-03-27T00:09:14.665Z,11.76
2023-03-27T00:12:20.658Z,11.76
2023-03-27T00:15:26.408Z,11.77
2023-03-27T00:18:32.371Z,11.76
2023-03-27T00:21:38.243Z,11.76
2023-03-27T00:24:44.290Z,11.75
2023-03-27T00:27:50.238Z,11.75
2023-03-27T00:30:56.989Z,11.74
2023-03-27T00:34:03.625Z,11.74
2023-03-27T00:37:09.527Z,11.73
2023-03-27T00:40:17.870Z,11.72
2023-03-27T00:43:27.442Z,11.71
2023-03-27T00:46:40.990Z,11.72
2023-03-27T00:49:49.168Z,11.74
2023-03-27T00:52:59.550Z,11.73
2023-03-27T00:56:08.221Z,11.69
2023-03-27T00:59:17.624Z,11.64
2023-03-27T01:02:24.943Z,11.63
2023-03-27T01:05:31.556Z,11.63
2023-03-27T01:08:38.130Z,11.62
2023-03-27T01:12:03.885Z,11.58
2023-03-27T01:15:18.930Z,11.53
2023-03-27T01:18:41.167Z,11.45
2023-03-27T01:22:25.313Z,11.44
2023-03-27T01:25:51.858Z,11.43
2023-03-27T01:29:04.807Z,11.42
2023-03-27T01:32:37.305Z,11.43
2023-03-27T01:36:02.921Z,11.44
2023-03-27T01:39:21.057Z,11.45
2023-03-27T01:42:33.687Z,11.46
2023-03-27T01:45:46.270Z,11.47
2023-03-27T01:48:58.228Z,11.47
2023-03-27T01:52:08.298Z,11.42
2023-03-27T01:55:20.344Z,11.37
2023-03-27T01:58:31.291Z,11.31
2023-03-27T02:01:40.995Z,11.25
2023-03-27T02:04:52.050Z,11.25
2023-03-27T02:08:06.066Z,11.24
2023-03-27T02:11:11.945Z,11.24
2023-03-27T02:14:22.723Z,11.27
2023-03-27T02:17:29.795Z,11.31
2023-03-27T02:20:37.682Z,11.35
2023-03-27T02:23:43.675Z,11.41
2023-03-27T02:26:52.657Z,11.44
2023-03-27T02:30:09.507Z,11.47
2023-03-27T02:33:28.641Z,11.50
2023-03-27T02:36:45.168Z,11.57
2023-03-27T02:39:59.600Z,11.64
2023-03-27T02:43:09.344Z,11.69
2023-03-27T02:46:22.008Z,11.71
2023-03-27T02:49:32.660Z,11.71
2023-03-27T02:52:42.513Z,11.69
2023-03-27T02:55:53.277Z,11.69
2023-03-27T02:59:05.188Z,11.71
2023-03-27T03:02:16.197Z,11.72
2023-03-27T03:05:24.781Z,11.73
2023-03-27T03:08:30.945Z,11.74
2023-03-27T03:11:39.557Z,11.76
2023-03-27T03:14:46.640Z,11.78
2023-03-27T03:17:53.517Z,11.79
2023-03-27T03:21:00.015Z,11.82
2023-03-27T03:24:06.990Z,11.83
2023-03-27T03:27:14.409Z,11.83
2023-03-27T03:30:20.802Z,11.85
2023-03-27T03:33:26.120Z,11.85
2023-03-27T03:36:31.949Z,11.83
2023-03-27T03:39:37.941Z,11.86
2023-03-27T03:42:49.368Z,11.87
2023-03-27T03:45:56.608Z,11.87
2023-03-27T03:49:02.442Z,11.86
2023-03-27T03:52:08.603Z,11.85
2023-03-27T03:55:15.965Z,11.83
2023-03-27T03:58:34.533Z,11.81
2023-03-27T04:01:41.072Z,11.81
2023-03-27T04:04:47.083Z,11.81
2023-03-27T04:07:52.933Z,11.80
2023-03-27T04:10:58.892Z,11.79
2023-03-27T04:14:04.672Z,11.80
2023-03-27T04:17:11.478Z,11.81
2023-03-27T04:20:18.520Z,11.79
2023-03-27T04:23:30.530Z,11.75
2023-03-27T04:26:36.575Z,11.68
2023-03-27T04:29:43.619Z,11.62
2023-03-27T04:32:49.926Z,11.58
2023-03-27T04:36:06.746Z,11.54
2023-03-27T04:39:16.779Z,11.49
2023-03-27T04:42:24.302Z,11.43
2023-03-27T04:45:30.258Z,11.43
2023-03-27T04:48:38.816Z,11.45
2023-03-27T04:51:44.797Z,11.47
2023-03-27T04:54:50.570Z,11.50
2023-03-27T04:57:57.806Z,11.51
2023-03-27T05:01:03.969Z,11.51
2023-03-27T05:04:10.044Z,11.48
2023-03-27T05:07:15.980Z,11.44
2023-03-27T05:10:22.491Z,11.38
2023-03-27T05:13:28.877Z,11.30
2023-03-27T05:16:36.104Z,11.26
2023-03-27T05:19:42.564Z,11.26
2023-03-27T05:22:47.192Z,11.29
2023-03-27T05:25:59.736Z,11.24
2023-03-27T05:29:08.798Z,11.22
2023-03-27T05:32:14.604Z,11.22
2023-03-27T05:35:22.485Z,11.23
2023-03-27T05:38:28.355Z,11.27
2023-03-27T05:41:35.443Z,11.27
2023-03-27T05:44:43.046Z,11.23
2023-03-27T05:47:51.971Z,11.18
2023-03-27T05:50:58.677Z,11.16
2023-03-27T05:54:04.908Z,11.18
2023-03-27T05:57:10.803Z,11.23
2023-03-27T06:00:25.329Z,11.26
2023-03-27T06:03:31.658Z,11.30
2023-03-27T06:06:37.897Z,11.36
2023-03-27T06:09:43.818Z,11.42
2023-03-27T06:12:50.005Z,11.48
2023-03-27T06:15:57.446Z,11.52
2023-03-27T06:19:04.546Z,11.52
2023-03-27T06:22:10.427Z,11.51
2023-03-27T06:25:17.703Z,11.52
2023-03-27T06:28:23.674Z,11.53
2023-03-27T06:31:29.780Z,11.56
2023-03-27T06:34:35.738Z,11.52
2023-03-27T06:37:45.907Z,11.44
2023-03-27T06:40:51.914Z,11.40
2023-03-27T06:43:57.954Z,11.39
2023-03-27T06:47:04.230Z,11.39
2023-03-27T06:50:10.120Z,11.39
2023-03-27T06:53:26.477Z,11.34
2023-03-27T06:56:33.820Z,11.27
2023-03-27T06:59:39.752Z,11.27
2023-03-27T07:02:45.768Z,11.29
2023-03-27T07:05:51.650Z,11.28
2023-03-27T07:08:57.658Z,11.24
2023-03-27T07:12:04.399Z,11.21
2023-03-27T07:15:12.104Z,11.17
2023-03-27T07:18:18.148Z,11.14
2023-03-27T07:21:24.225Z,11.08
2023-03-27T07:24:30.282Z,11.02
2023-03-27T07:27:36.242Z,10.96
2023-03-27T07:30:42.640Z,10.87
2023-03-27T07:33:48.590Z,10.82
2023-03-27T07:36:54.703Z,10.83
2023-03-27T07:40:00.592Z,10.87
2023-03-27T07:43:07.359Z,10.87
2023-03-27T07:46:13.817Z,10.85
2023-03-27T07:49:20.011Z,10.78
2023-03-27T07:52:46.168Z,10.77
2023-03-27T07:55:53.712Z,10.76
2023-03-27T07:58:59.905Z,10.76
2023-03-27T08:02:05.964Z,10.76
2023-03-27T08:05:13.554Z,10.76
2023-03-27T08:08:19.425Z,10.79
2023-03-27T08:11:30.722Z,10.82
2023-03-27T08:14:36.969Z,10.81
2023-03-27T08:17:43.505Z,10.77
2023-03-27T08:20:53.420Z,10.77
2023-03-27T08:24:00.707Z,10.76
2023-03-27T08:27:07.267Z,10.75
2023-03-27T08:30:17.041Z,10.72
2023-03-27T08:33:23.690Z,10.70
2023-03-27T08:36:32.209Z,10.69
2023-03-27T08:39:38.707Z,10.68
2023-03-27T08:42:47.723Z,10.68
2023-03-27T08:45:59.316Z,10.66
2023-03-27T08:49:09.695Z,10.67
2023-03-27T08:52:17.892Z,10.63
2023-03-27T08:55:39.520Z,10.64
2023-03-27T08:58:46.187Z,10.64
2023-03-27T09:01:58.817Z,10.69
2023-03-27T09:05:10.172Z,10.75
2023-03-27T09:08:29.074Z,10.76
2023-03-27T09:11:47.078Z,10.74
2023-03-27T09:14:58.873Z,10.70
2023-03-27T09:18:10.776Z,10.68
2023-03-27T09:21:21.392Z,10.63
2023-03-27T09:24:32.333Z,10.64
2023-03-27T09:27:38.815Z,10.63
2023-03-27T09:30:44.742Z,10.52
2023-03-27T09:33:50.604Z,10.45
2023-03-27T09:36:58.252Z,10.44
2023-03-27T09:40:07.469Z,10.43
2023-03-27T09:43:22.350Z,10.45
2023-03-27T09:46:30.032Z,10.42
2023-03-27T09:49:39.760Z,10.42
2023-03-27T09:52:45.606Z,10.47
2023-03-27T09:55:54.825Z,10.52
2023-03-27T09:59:01.930Z,10.56
2023-03-27T10:02:22.238Z,10.61
2023-03-27T10:05:28.190Z,10.62
2023-03-27T10:08:41.930Z,10.58
2023-03-27T10:11:49.323Z,10.55
2023-03-27T10:14:55.483Z,10.48
2023-03-27T10:18:02.170Z,10.46
2023-03-27T10:21:13.367Z,10.41
2023-03-27T10:24:28.557Z,10.42
2023-03-27T10:27:40.722Z,10.35
2023-03-27T10:30:47.295Z,10.14
2023-03-27T10:33:53.515Z,9.93
2023-03-27T10:37:01.577Z,9.78
2023-03-27T10:40:17.259Z,9.65
2023-03-27T10:43:31.858Z,9.50
2023-03-27T10:46:41.679Z,9.28
2023-03-27T10:49:54.182Z,9.14
2023-03-27T10:53:07.633Z,9.10
2023-03-27T10:56:21.151Z,9.04
2023-03-27T10:59:41.121Z,8.90
2023-03-27T11:02:54.688Z,8.88
2023-03-27T11:06:03.817Z,8.88
2023-03-27T11:09:18.939Z,8.85
2023-03-27T11:12:26.379Z,8.75
2023-03-27T11:15:37.153Z,8.72
2023-03-27T11:18:47.402Z,8.70
2023-03-27T11:21:57.459Z,8.71
2023-03-27T11:25:10.999Z,8.59
2023-03-27T11:28:25.561Z,8.50
2023-03-27T11:31:39.560Z,8.52
2023-03-27T11:34:53.740Z,8.45
2023-03-27T11:38:03.965Z,8.40
2023-03-27T11:41:15.359Z,8.40
2023-03-27T11:44:22.099Z,8.41
2023-03-27T11:47:39.685Z,8.50
2023-03-27T11:50:54.328Z,8.45
2023-03-27T11:54:18.012Z,8.33
2023-03-27T11:57:25.926Z,8.22
2023-03-27T12:00:36.404Z,8.24
2023-03-27T12:04:06.927Z,8.20
2023-03-27T12:07:35.265Z,8.27
2023-03-27T12:10:44.515Z,8.10
2023-03-27T12:14:23.949Z,8.05
2023-03-27T12:17:49.976Z,7.84
2023-03-27T12:21:06.749Z,7.81
2023-03-27T12:24:29.105Z,7.77
2023-03-27T12:27:48.069Z,7.72
2023-03-27T12:31:06.110Z,7.67
2023-03-27T12:34:27.745Z,7.65
2023-03-27T12:37:38.814Z,7.57
2023-03-27T12:41:01.604Z,7.49
2023-03-27T12:44:13.465Z,7.40
2023-03-27T12:47:26.318Z,7.28
2023-03-27T12:50:37.066Z,7.20
2023-03-27T12:53:59.397Z,7.24
2023-03-27T12:57:20.789Z,7.28
2023-03-27T13:00:28.924Z,7.35
2023-03-27T13:03:59.066Z,7.33
2023-03-27T13:07:12.242Z,7.34
2023-03-27T13:10:29.238Z,7.40
2023-03-27T13:14:07.527Z,7.44
2023-03-27T13:17:49.808Z,7.30
2023-03-27T13:21:04.516Z,7.28
2023-03-27T13:24:26.637Z,7.24
2023-03-27T13:27:48.465Z,7.16
2023-03-27T13:30:56.501Z,7.12
2023-03-27T13:34:17.499Z,7.11
2023-03-27T13:37:58.293Z,7.03
2023-03-27T13:41:46.326Z,7.03
2023-03-27T13:44:59.516Z,7.03
2023-03-27T13:48:34.878Z,6.99
2023-03-27T13:52:20.294Z,6.97
2023-03-27T13:55:49.755Z,6.91
2023-03-27T13:59:37.007Z,6.85
2023-03-27T14:03:15.375Z,6.91
2023-03-27T14:06:57.556Z,6.85
2023-03-27T14:10:23.294Z,6.78
2023-03-27T14:13:42.726Z,6.76
2023-03-27T14:17:05.494Z,6.73
2023-03-27T14:20:23.190Z,6.68
2023-03-27T14:23:33.870Z,6.63
2023-03-27T14:26:45.894Z,6.62
2023-03-27T14:30:05.567Z,6.66
2023-03-27T14:33:12.319Z,6.65
2023-03-27T14:36:18.506Z,6.61
2023-03-27T14:39:27.833Z,6.62
2023-03-27T14:42:36.789Z,6.67
2023-03-27T14:45:44.252Z,6.69
2023-03-27T14:48:54.594Z,6.72
2023-03-27T14:52:06.507Z,6.76
2023-03-27T14:55:14.806Z,6.78
2023-03-27T14:58:23.402Z,6.80
2023-03-27T15:01:32.025Z,6.80
2023-03-27T15:04:40.282Z,6.78
2023-03-27T15:07:49.110Z,6.79
2023-03-27T15:10:56.114Z,6.72
2023-03-27T15:14:02.564Z,6.66
2023-03-27T15:17:08.736Z,6.64
2023-03-27T15:20:20.140Z,6.60
2023-03-27T15:23:29.689Z,6.56
2023-03-27T15:26:36.435Z,6.54
2023-03-27T15:29:47.204Z,6.55
2023-03-27T15:32:57.259Z,6.56
2023-03-27T15:36:07.306Z,6.59
2023-03-27T15:39:22.426Z,6.62
2023-03-27T15:42:32.666Z,6.62
2023-03-27T15:45:41.590Z,6.51
2023-03-27T15:48:55.494Z,6.33
2023-03-27T15:52:22.799Z,6.19
2023-03-27T15:55:39.120Z,6.14
2023-03-27T15:58:52.569Z,6.08
2023-03-27T16:02:03.844Z,5.97
2023-03-27T16:05:16.872Z,5.92
2023-03-27T16:08:30.937Z,5.92
2023-03-27T16:11:45.877Z,5.95
2023-03-27T16:14:58.240Z,5.99
2023-03-27T16:18:15.083Z,6.01
2023-03-27T16:21:24.320Z,6.05
2023-03-27T16:24:30.176Z,6.10
2023-03-27T16:27:38.424Z,6.14
2023-03-27T16:30:45.817Z,6.18
2023-03-27T16:33:51.639Z,6.22
2023-03-27T16:36:57.609Z,6.24
2023-03-27T16:40:03.725Z,6.23
2023-03-27T16:43:09.929Z,6.25
2023-03-27T16:46:22.127Z,6.31
2023-03-27T16:49:28.249Z,6.39
2023-03-27T16:52:34.161Z,6.45
2023-03-27T16:55:40.181Z,6.46
2023-03-27T16:58:46.404Z,6.44
2023-03-27T17:01:52.457Z,6.13
2023-03-27T17:04:58.256Z,5.49
2023-03-27T17:08:07.132Z,5.52
2023-03-27T17:11:14.647Z,5.71
2023-03-27T17:14:20.530Z,5.77
2023-03-27T17:17:27.567Z,5.80
2023-03-27T17:20:34.795Z,5.91
2023-03-27T17:23:42.334Z,6.00
2023-03-27T17:26:48.084Z,6.05
2023-03-27T17:29:55.771Z,6.15
2023-03-27T17:33:01.936Z,6.20
2023-03-27T17:36:12.960Z,6.25
2023-03-27T17:39:19.102Z,6.26
2023-03-27T17:42:25.063Z,6.24
2023-03-27T17:45:31.023Z,6.24
2023-03-27T17:48:37.418Z,6.26
2023-03-27T17:51:43.376Z,6.24
2023-03-27T17:54:49.514Z,6.24
2023-03-27T17:58:08.182Z,6.25
2023-03-27T18:01:20.199Z,6.28
2023-03-27T18:04:26.782Z,6.30
2023-03-27T18:07:33.936Z,6.28
2023-03-27T18:10:43.896Z,6.16
2023-03-27T18:13:53.323Z,5.55
2023-03-27T18:16:59.340Z,4.97
2023-03-27T18:20:08.593Z,4.59
2023-03-27T18:23:14.461Z,4.44
2023-03-27T18:26:20.343Z,4.80
2023-03-27T18:29:26.114Z,5.17
2023-03-27T18:32:32.195Z,5.40
2023-03-27T18:35:38.648Z,5.57
2023-03-27T18:38:45.651Z,5.69
2023-03-27T18:41:54.960Z,5.79
2023-03-27T18:45:00.732Z,5.94
2023-03-27T18:48:08.200Z,6.05
2023-03-27T18:51:14.591Z,6.13
2023-03-27T18:54:18.981Z,6.14
2023-03-27T18:57:25.119Z,5.78
2023-03-27T19:00:29.568Z,5.18
2023-03-27T19:03:36.433Z,4.73
2023-03-27T19:06:42.260Z,4.38
2023-03-27T19:09:48.165Z,4.09
2023-03-27T19:12:54.020Z,3.95
2023-03-27T19:16:00.118Z,4.27
2023-03-27T19:19:06.037Z,4.64
2023-03-27T19:22:13.734Z,4.92
2023-03-27T19:25:20.075Z,4.92
2023-03-27T19:28:24.222Z,4.42
2023-03-27T19:31:31.063Z,4.03
2023-03-27T19:34:42.700Z,3.75
2023-03-27T19:37:49.160Z,3.65
2023-03-27T19:40:55.381Z,4.07
2023-03-27T19:44:01.605Z,4.46
2023-03-27T19:47:09.865Z,4.73
2023-03-27T19:50:16.160Z,4.70
2023-03-27T19:53:22.390Z,4.24
2023-03-27T19:56:28.438Z,3.86
2023-03-27T19:59:34.188Z,3.57
2023-03-27T20:02:41.090Z,3.38
2023-03-27T20:05:51.708Z,3.25
2023-03-27T20:09:00.337Z,3.14
2023-03-27T20:12:07.124Z,3.15
2023-03-27T20:15:14.419Z,3.65
2023-03-27T20:18:22.315Z,4.15
2023-03-27T20:21:28.160Z,4.50
2023-03-27T20:24:33.914Z,4.76
2023-03-27T20:27:39.773Z,4.98
2023-03-27T20:30:45.942Z,5.05
2023-03-27T20:33:53.313Z,4.60
2023-03-27T20:37:01.029Z,4.13
2023-03-27T20:40:11.640Z,3.80
2023-03-27T20:43:19.594Z,3.55
2023-03-27T20:46:25.588Z,3.36
2023-03-27T20:49:40.522Z,3.19
2023-03-27T20:52:50.230Z,3.15
2023-03-27T20:56:00.676Z,3.60
2023-03-27T20:59:07.696Z,3.98
2023-03-27T21:02:17.835Z,4.25
2023-03-27T21:05:23.760Z,4.45
2023-03-27T21:08:31.554Z,4.62
2023-03-27T21:11:37.641Z,4.66
2023-03-27T21:14:43.572Z,4.24
2023-03-27T21:17:49.736Z,3.82
2023-03-27T21:20:54.767Z,3.49
2023-03-27T21:24:00.958Z,3.23
2023-03-27T21:27:07.095Z,3.03
2023-03-27T21:30:16.425Z,2.86
2023-03-27T21:33:22.526Z,2.70
2023-03-27T21:36:29.722Z,2.69
2023-03-27T21:39:35.739Z,3.16
2023-03-27T21:42:41.608Z,3.62
2023-03-27T21:45:49.590Z,3.92
2023-03-27T21:48:55.345Z,4.15
2023-03-27T21:52:01.251Z,4.30
2023-03-27T21:55:08.177Z,4.06
2023-03-27T21:58:14.059Z,3.57
2023-03-27T22:01:20.186Z,3.20
2023-03-27T22:04:26.935Z,2.92
2023-03-27T22:07:34.073Z,2.71
2023-03-27T22:10:40.531Z,2.53
2023-03-27T22:13:47.167Z,2.37
2023-03-27T22:16:53.460Z,2.33
2023-03-27T22:19:59.738Z,2.78
2023-03-27T22:23:05.895Z,3.21
2023-03-27T22:26:12.162Z,3.54
2023-03-27T22:29:18.466Z,3.79
2023-03-27T22:32:23.054Z,3.99
2023-03-27T22:35:29.336Z,4.13
2023-03-27T22:38:34.123Z,4.20
2023-03-27T22:41:40.327Z,3.76
2023-03-27T22:44:46.525Z,3.29
2023-03-27T22:47:52.527Z,2.96
2023-03-27T22:50:59.331Z,2.70
2023-03-27T22:54:05.596Z,2.49
2023-03-27T22:57:11.923Z,2.32
2023-03-27T23:00:17.604Z,2.25
2023-03-27T23:03:25.399Z,2.64
2023-03-27T23:06:31.720Z,3.09
2023-03-27T23:09:38.230Z,3.41
2023-03-27T23:12:44.489Z,3.64
2023-03-27T23:15:51.901Z,3.82
2023-03-27T23:18:58.116Z,3.93
2023-03-27T23:22:04.221Z,3.54
2023-03-27T23:25:11.438Z,3.04
2023-03-27T23:28:17.670Z,2.68
2023-03-27T23:31:24.026Z,2.40
2023-03-27T23:34:30.357Z,2.18
2023-03-27T23:37:36.664Z,1.97
2023-03-27T23:40:41.259Z,1.90
2023-03-27T23:43:48.136Z,2.27
2023-03-27T23:46:54.438Z,2.67
2023-03-27T23:49:58.932Z,2.97
2023-03-27T23:53:05.219Z,3.16
2023-03-27T23:56:10.829Z,3.34
2023-03-27T23:59:17.063Z,3.45
